Time;durP1;ratioP1;P1;durP2;ratioP2;P2;SDS_P1;SDS_P2;PMS_P1;PMS_P2;Temp;Humidity;BMP_temperature;BMP_pressure;BME280_temperature;BME280_humidity;BME280_pressure;Samples;Min_cycle;Max_cycle;Signal;HPM_P1;HPM_P2
2021/06/25 00:02:50;;;;;;;14.82;7.85;;;;;;;0.01;0.00;59042.03;10320272;28;20044;-59
2021/06/25 00:07:50;;;;;;;13.80;7.65;;;;;;;0.01;0.00;59042.03;10319913;28;20041;-58
2021/06/25 00:12:49;;;;;;;12.88;8.20;;;;;;;0.01;0.00;59042.03;10319912;28;20498;-58
2021/06/25 00:17:48;;;;;;;13.00;7.85;;;;;;;0.01;0.00;59042.03;10318639;28;20078;-58
2021/06/25 00:22:47;;;;;;;10.20;7.18;;;;;;;0.01;0.00;59042.03;10319555;28;20041;-58
2021/06/25 00:27:48;;;;;;;14.85;7.53;;;;;;;0.01;0.00;59042.03;10318452;28;20044;-58
2021/06/25 00:32:47;;;;;;;13.48;7.32;;;;;;;0.01;0.00;59042.03;10318934;28;20417;-58
2021/06/25 00:37:46;;;;;;;13.38;7.45;;;;;;;0.01;0.00;59042.03;10318835;28;20072;-58
2021/06/25 00:42:45;;;;;;;14.27;6.78;;;;;;;0.01;0.00;59042.03;10317984;28;20063;-58
2021/06/25 00:47:47;;;;;;;21.05;7.13;;;;;;;0.01;0.00;59042.03;10318157;28;20049;-58
2021/06/25 00:52:46;;;;;;;14.88;7.05;;;;;;;0.01;0.00;59042.03;10299532;28;20090;-58
2021/06/25 00:57:45;;;;;;;13.10;7.82;;;;;;;0.01;0.00;59042.03;10317858;28;20505;-58
2021/06/25 01:02:45;;;;;;;20.90;8.73;;;;;;;0.01;0.00;59042.03;10317803;28;20421;-57
2021/06/25 01:07:45;;;;;;;12.82;7.18;;;;;;;0.01;0.00;59042.03;10317665;28;20052;-55
2021/06/25 01:12:45;;;;;;;14.98;7.18;;;;;;;0.01;0.00;59042.03;10317477;28;20048;-56
2021/06/25 01:17:46;;;;;;;15.23;7.43;;;;;;;0.01;0.00;59042.03;10317118;28;20104;-56
2021/06/25 01:22:47;;;;;;;16.05;7.20;;;;;;;0.01;0.00;59042.03;10317094;28;20076;-53
2021/06/25 01:27:47;;;;;;;15.05;7.47;;;;;;;0.01;0.00;59042.03;10316003;28;20048;-53
2021/06/25 01:32:47;;;;;;;12.88;8.35;;;;;;;0.01;0.00;59042.03;10316964;28;20081;-52
2021/06/25 01:37:47;;;;;;;12.10;7.53;;;;;;;0.01;0.00;59042.03;10315943;28;20079;-54
2021/06/25 01:42:48;;;;;;;12.52;6.90;;;;;;;0.01;0.00;59042.03;10316497;28;20071;-56
2021/06/25 01:47:49;;;;;;;18.85;10.25;;;;;;;0.01;0.00;59042.03;10316321;28;20437;-55
2021/06/25 01:52:51;;;;;;;15.88;8.60;;;;;;;0.01;0.00;59042.03;10315726;28;20055;-55
2021/06/25 01:57:50;;;;;;;17.75;10.00;;;;;;;0.01;0.00;59042.03;10316931;28;20079;-56
2021/06/25 02:02:49;;;;;;;14.38;8.30;;;;;;;0.01;0.00;59042.03;10315428;28;20506;-56
2021/06/25 02:07:49;;;;;;;15.23;8.88;;;;;;;0.01;0.00;59042.03;10316019;28;20497;-56
2021/06/25 02:12:48;;;;;;;18.42;9.25;;;;;;;0.01;0.00;59042.03;10315968;28;20506;-52
2021/06/25 02:17:47;;;;;;;17.33;9.45;;;;;;;0.01;0.00;59042.03;10315184;28;20084;-56
2021/06/25 02:22:46;;;;;;;16.90;8.40;;;;;;;0.01;0.00;59042.03;10315726;28;20045;-56
2021/06/25 02:27:46;;;;;;;17.27;8.73;;;;;;;0.01;0.00;59042.03;10315879;28;20054;-53
2021/06/25 02:32:46;;;;;;;15.23;8.68;;;;;;;0.01;0.00;59042.03;10315716;28;20040;-55
2021/06/25 02:37:45;;;;;;;13.23;8.05;;;;;;;0.01;0.00;59042.03;10315084;28;20501;-56
2021/06/25 02:42:46;;;;;;;17.77;7.75;;;;;;;0.01;0.00;59042.03;10321821;28;20049;-57
2021/06/25 02:47:45;;;;;;;15.25;8.40;;;;;;;0.01;0.00;59042.03;10322529;28;20040;-56
2021/06/25 02:52:44;;;;;;;10.90;7.68;;;;;;;0.01;0.00;59042.03;10323017;28;20083;-55
2021/06/25 02:57:43;;;;;;;11.93;8.38;;;;;;;0.01;0.00;59042.03;10322743;28;20579;-55
2021/06/25 03:02:44;;;;;;;14.80;9.20;;;;;;;0.01;0.00;59042.03;10322844;28;20045;-57
2021/06/25 03:07:43;;;;;;;13.70;9.00;;;;;;;0.01;0.00;59042.03;10321870;28;20045;-56
2021/06/25 03:12:42;;;;;;;14.90;9.18;;;;;;;0.01;0.00;59042.03;10322324;28;20032;-55
2021/06/25 03:17:43;;;;;;;16.13;9.00;;;;;;;0.01;0.00;59042.03;10322076;28;20079;-56
2021/06/25 03:22:42;;;;;;;18.92;8.95;;;;;;;0.01;0.00;59042.03;10321721;28;20052;-56
2021/06/25 03:27:41;;;;;;;20.23;9.63;;;;;;;0.01;0.00;59042.03;10321622;28;20528;-56
2021/06/25 03:32:40;;;;;;;17.30;8.85;;;;;;;0.01;0.00;59042.03;10320779;28;20052;-58
2021/06/25 03:37:40;;;;;;;17.63;8.93;;;;;;;0.01;0.00;59042.03;10320359;28;20092;-58
2021/06/25 03:42:40;;;;;;;17.65;9.20;;;;;;;0.01;0.00;59042.03;10320742;28;20076;-57
2021/06/25 03:47:40;;;;;;;17.70;8.95;;;;;;;0.01;0.00;59042.03;10319995;28;20052;-57
2021/06/25 03:52:41;;;;;;;16.00;9.60;;;;;;;0.01;0.00;59042.03;10319389;28;20445;-56
2021/06/25 03:57:42;;;;;;;12.35;9.57;;;;;;;0.01;0.00;59042.03;10319307;28;20052;-56
2021/06/25 04:02:41;;;;;;;14.23;9.40;;;;;;;0.01;0.00;59042.03;10318796;28;20079;-55
2021/06/25 04:07:42;;;;;;;16.40;9.70;;;;;;;0.01;0.00;59042.03;10319492;28;20044;-55
2021/06/25 04:12:42;;;;;;;18.92;10.00;;;;;;;0.01;0.00;59042.03;10317957;28;20036;-56
2021/06/25 04:17:41;;;;;;;13.75;8.95;;;;;;;0.01;0.00;59042.03;10318410;28;20076;-56
2021/06/25 04:22:41;;;;;;;17.40;10.95;;;;;;;0.01;0.00;59042.03;10318329;28;20041;-53
2021/06/25 04:27:40;;;;;;;16.50;10.43;;;;;;;0.01;0.00;59042.03;10319829;28;20052;-56
2021/06/25 04:32:39;;;;;;;24.42;15.35;;;;;;;0.01;0.00;59042.03;10318782;28;20072;-52
2021/06/25 04:37:38;;;;;;;15.35;11.18;;;;;;;0.01;0.00;59042.03;10315432;28;20080;-51
2021/06/25 04:42:40;;;;;;;17.02;10.43;;;;;;;0.01;0.00;59042.03;10315534;28;20071;-53
2021/06/25 04:47:41;;;;;;;22.92;11.38;;;;;;;0.01;0.00;59042.03;10312233;28;20099;-54
2021/06/25 04:52:40;;;;;;;22.25;11.15;;;;;;;0.01;0.00;59042.03;10309714;28;20079;-55
2021/06/25 04:57:40;;;;;;;15.88;10.45;;;;;;;0.01;0.00;59042.03;10311553;28;20103;-56
2021/06/25 05:02:39;;;;;;;28.13;11.57;;;;;;;0.01;0.00;59042.03;10312782;28;20086;-56
2021/06/25 05:07:38;;;;;;;20.00;10.98;;;;;;;0.01;0.00;59042.03;10314889;28;20078;-56
2021/06/25 05:12:37;;;;;;;17.02;10.68;;;;;;;0.01;0.00;59042.03;10316844;28;20040;-51
2021/06/25 05:17:38;;;;;;;14.95;10.90;;;;;;;0.01;0.00;59042.03;10317064;28;20078;-53
2021/06/25 05:22:48;;;;;;;16.92;11.35;;;;;;;0.01;0.00;59042.03;10315970;28;20060;-56
2021/06/25 05:27:47;;;;;;;24.30;13.68;;;;;;;0.01;0.00;59042.03;10316027;28;20079;-56
2021/06/25 05:32:47;;;;;;;36.55;24.95;;;;;;;0.01;0.00;59042.03;10315796;28;20532;-56
2021/06/25 05:37:46;;;;;;;27.45;14.32;;;;;;;0.01;0.00;59042.03;10316240;28;20079;-55
2021/06/25 05:42:45;;;;;;;31.77;23.42;;;;;;;0.01;0.00;59042.03;10315578;28;20070;-56
2021/06/25 05:47:44;;;;;;;24.58;15.02;;;;;;;0.01;0.00;59042.03;10315460;28;20057;-57
2021/06/25 05:52:44;;;;;;;21.95;14.90;;;;;;;0.01;0.00;59042.03;10316194;28;20303;-56
2021/06/25 05:57:45;;;;;;;15.70;9.68;;;;;;;0.01;0.00;59042.03;10316103;28;20572;-57
2021/06/25 06:02:44;;;;;;;16.30;8.80;;;;;;;0.01;0.00;59042.03;10315432;28;20052;-56
2021/06/25 06:07:45;;;;;;;23.60;9.85;;;;;;;0.01;0.00;59042.03;10315862;28;20059;-56
2021/06/25 06:12:44;;;;;;;18.30;9.25;;;;;;;0.01;0.00;59042.03;10315861;28;20071;-57
2021/06/25 06:17:47;;;;;;;29.75;19.27;;;;;;;0.01;0.00;59042.03;10322730;28;20084;-57
2021/06/25 06:33:31;;;;;;;20.83;10.52;;;;;;;0.01;0.00;59042.03;10323343;28;20517;-55
2021/06/25 06:38:32;;;;;;;26.30;13.30;;;;;;;0.01;0.00;59042.03;10323673;28;20087;-57
2021/06/25 06:43:31;;;;;;;21.30;9.88;;;;;;;0.01;0.00;59042.03;10323887;28;20053;-57
2021/06/25 06:48:32;;;;;;;19.70;9.55;;;;;;;0.01;0.00;59042.03;10322551;28;20049;-57
2021/06/25 06:53:32;;;;;;;20.17;9.35;;;;;;;0.01;0.00;59042.03;10323266;28;20036;-57
2021/06/25 06:58:31;;;;;;;18.50;9.95;;;;;;;0.01;0.00;59042.03;10322218;28;20087;-57
2021/06/25 07:03:30;;;;;;;25.80;11.18;;;;;;;0.01;0.00;59042.03;10323033;28;20056;-58
2021/06/25 07:08:29;;;;;;;24.95;13.23;;;;;;;0.01;0.00;59042.03;10321536;28;20509;-57
2021/06/25 07:13:29;;;;;;;24.67;10.60;;;;;;;0.01;0.00;59042.03;10321718;28;20513;-57
2021/06/25 07:18:28;;;;;;;27.13;12.93;;;;;;;0.01;0.00;59042.03;10315993;28;20075;-54
2021/06/25 07:23:27;;;;;;;29.58;16.05;;;;;;;0.01;0.00;59042.03;10315726;28;20095;-57
2021/06/25 07:28:26;;;;;;;22.63;10.68;;;;;;;0.01;0.00;59042.03;10318746;28;20520;-57
2021/06/25 07:33:26;;;;;;;20.90;10.25;;;;;;;0.01;0.00;59042.03;10321161;28;20071;-57
2021/06/25 07:38:26;;;;;;;19.83;9.23;;;;;;;0.01;0.00;59042.03;10320735;28;20087;-57
2021/06/25 07:43:25;;;;;;;17.05;8.35;;;;;;;0.01;0.00;59042.03;10319922;28;20489;-56
2021/06/25 07:48:25;;;;;;;14.38;10.18;;;;;;;0.01;0.00;59042.03;10320555;28;20109;-57
2021/06/25 07:53:24;;;;;;;21.13;9.98;;;;;;;0.01;0.00;59042.03;10320882;28;20033;-57
2021/06/25 07:58:23;;;;;;;23.95;9.57;;;;;;;0.01;0.00;59042.03;10320134;28;20079;-57
2021/06/25 08:03:25;;;;;;;25.42;11.32;;;;;;;0.01;0.00;59042.03;10320867;28;20048;-57
2021/06/25 08:08:24;;;;;;;22.98;8.20;;;;;;;0.01;0.00;59042.03;10319762;28;20045;-57
2021/06/25 08:13:23;;;;;;;22.15;10.43;;;;;;;0.01;0.00;59042.03;10319297;28;20091;-57
2021/06/25 08:18:22;;;;;;;21.85;8.65;;;;;;;0.01;0.00;59042.03;10301311;28;20505;-57
2021/06/25 08:23:22;;;;;;;20.00;9.77;;;;;;;0.01;0.00;59042.03;10319297;28;20055;-57
2021/06/25 08:28:21;;;;;;;16.35;9.55;;;;;;;0.01;0.00;59042.03;10318910;28;20047;-56
2021/06/25 08:33:20;;;;;;;20.70;8.95;;;;;;;0.01;0.00;59042.03;10319177;28;20045;-57
2021/06/25 08:38:19;;;;;;;22.73;9.57;;;;;;;0.01;0.00;59042.03;10318051;28;20041;-57
2021/06/25 08:43:20;;;;;;;16.80;7.95;;;;;;;0.01;0.00;59042.03;10317787;28;20063;-57
2021/06/25 08:48:19;;;;;;;19.52;8.68;;;;;;;0.01;0.00;59042.03;10318422;28;20586;-57
2021/06/25 08:53:18;;;;;;;25.40;10.63;;;;;;;0.01;0.00;59042.03;10318662;28;20504;-57
2021/06/25 08:58:20;;;;;;;19.05;8.02;;;;;;;0.01;0.00;59042.03;10318045;28;20084;-57
2021/06/25 09:03:21;;;;;;;20.65;8.45;;;;;;;0.01;0.00;59042.03;10299967;28;20055;-57
2021/06/25 09:08:28;;;;;;;19.45;8.48;;;;;;;0.01;0.00;59042.03;10317841;28;20045;-58
2021/06/25 09:13:36;;;;;;;16.30;7.57;;;;;;;0.01;0.00;59042.03;10317628;28;20071;-57
2021/06/25 09:18:34;;;;;;;18.00;8.23;;;;;;;0.01;0.00;59042.03;10317126;28;20084;-57
2021/06/25 09:23:37;;;;;;;20.30;7.63;;;;;;;0.01;0.00;59042.03;10317099;28;20056;-57
2021/06/25 09:29:11;;;;;;;16.60;9.02;;;;;;;0.01;0.00;59042.03;10316922;28;20119;-57
2021/06/25 09:34:11;;;;;;;14.82;8.02;;;;;;;0.01;0.00;59042.03;10316386;28;20676;-57
2021/06/25 09:39:12;;;;;;;13.85;7.75;;;;;;;0.01;0.00;59042.03;10316195;28;20076;-57
2021/06/25 09:44:18;;;;;;;16.55;9.02;;;;;;;0.01;0.00;59042.03;10299204;28;20060;-58
2021/06/25 09:49:24;;;;;;;17.05;8.68;;;;;;;0.01;0.00;59042.03;10315757;28;20044;-57
2021/06/25 09:54:23;;;;;;;24.30;9.00;;;;;;;0.01;0.00;59042.03;10316135;28;20762;-56
2021/06/25 09:59:36;;;;;;;12.55;7.32;;;;;;;0.01;0.00;59042.03;10316089;28;20079;-57
2021/06/25 10:04:36;;;;;;;26.27;9.18;;;;;;;0.01;0.00;59042.03;10315621;28;20048;-57
2021/06/25 10:09:35;;;;;;;16.27;7.47;;;;;;;0.01;0.00;59042.03;10315358;28;20047;-57
2021/06/25 10:14:35;;;;;;;21.58;8.35;;;;;;;0.01;0.00;59042.03;10315689;28;20048;-57
2021/06/25 10:19:35;;;;;;;14.90;8.57;;;;;;;0.01;0.00;59042.03;10315069;28;20575;-56
2021/06/25 10:24:35;;;;;;;19.60;7.97;;;;;;;0.01;0.00;59042.03;10315649;28;20071;-56
2021/06/25 10:29:36;;;;;;;19.35;7.75;;;;;;;0.01;0.00;59042.03;10315408;28;20080;-55
2021/06/25 10:34:36;;;;;;;16.27;8.45;;;;;;;0.01;0.00;59042.03;10312017;28;20079;-56
2021/06/25 10:39:37;;;;;;;16.75;8.07;;;;;;;0.01;0.00;59042.03;10311668;28;20490;-56
2021/06/25 10:44:42;;;;;;;19.75;8.05;;;;;;;0.01;0.00;59042.03;10313875;28;20063;-56
2021/06/25 10:50:29;;;;;;;16.92;7.25;;;;;;;0.01;0.00;59042.03;10314094;28;20040;-56
2021/06/25 10:55:28;;;;;;;16.00;7.88;;;;;;;0.01;0.00;59042.03;10314678;28;20063;-56
2021/06/25 11:00:53;;;;;;;21.52;7.45;;;;;;;0.01;0.00;59042.03;10316714;28;20114;-56
2021/06/25 11:05:52;;;;;;;21.30;9.00;;;;;;;0.01;0.00;59042.03;10321876;28;20545;-56
2021/06/25 11:10:53;;;;;;;16.08;6.95;;;;;;;0.01;0.00;59042.03;10322789;28;20063;-57
2021/06/25 11:15:56;;;;;;;18.05;7.75;;;;;;;0.01;0.00;59042.03;10322492;28;20080;-57
2021/06/25 11:20:57;;;;;;;16.27;7.35;;;;;;;0.01;0.00;59042.03;10321711;28;20481;-58
2021/06/25 11:25:57;;;;;;;23.58;9.35;;;;;;;0.01;0.00;59042.03;10322290;28;20521;-58
2021/06/25 11:31:01;;;;;;;14.45;7.82;;;;;;;0.01;0.00;59042.03;10322262;28;20463;-58
2021/06/25 11:36:40;;;;;;;20.20;7.90;;;;;;;0.01;0.00;59042.03;10321999;28;20059;-58
2021/06/25 11:41:41;;;;;;;20.20;9.30;;;;;;;0.01;0.00;59042.03;10305119;28;20080;-58
2021/06/25 11:46:49;;;;;;;20.05;8.73;;;;;;;0.01;0.00;59042.03;10319188;28;20060;-57
2021/06/25 11:51:48;;;;;;;14.35;8.57;;;;;;;0.01;0.00;59042.03;10319833;28;20056;-58
2021/06/25 11:56:48;;;;;;;14.18;7.40;;;;;;;0.01;0.00;59042.03;10314998;28;20068;-58
2021/06/25 12:01:55;;;;;;;23.55;7.43;;;;;;;0.01;0.00;59042.03;10319372;28;20068;-56
2021/06/25 12:06:55;;;;;;;19.95;7.63;;;;;;;0.01;0.00;59042.03;10316080;28;20064;-58
2021/06/25 12:11:54;;;;;;;18.75;6.82;;;;;;;0.01;0.00;59042.03;10318229;28;20064;-58
2021/06/25 12:16:54;;;;;;;20.30;7.97;;;;;;;0.01;0.00;59042.03;10319503;28;20092;-58
2021/06/25 12:21:53;;;;;;;17.88;7.35;;;;;;;0.01;0.00;59042.03;10318203;28;20510;-57
2021/06/25 12:26:52;;;;;;;19.38;7.80;;;;;;;0.01;0.00;59042.03;10318299;28;20453;-58
2021/06/25 12:31:52;;;;;;;14.13;8.00;;;;;;;0.01;0.00;59042.03;10319260;28;20055;-58
2021/06/25 12:37:00;;;;;;;19.55;9.20;;;;;;;0.01;0.00;59042.03;10301192;28;20041;-58
2021/06/25 12:42:01;;;;;;;18.95;6.85;;;;;;;0.01;0.00;59042.03;10318625;28;20483;-58
2021/06/25 12:47:04;;;;;;;17.92;8.43;;;;;;;0.01;0.00;59042.03;10317691;28;20059;-58
2021/06/25 12:52:20;;;;;;;17.88;10.55;;;;;;;0.01;0.00;59042.03;10317122;28;20087;-58
2021/06/25 12:57:20;;;;;;;19.85;11.30;;;;;;;0.01;0.00;59042.03;10318279;28;20053;-58
2021/06/25 13:02:19;;;;;;;24.25;13.80;;;;;;;0.01;0.00;59042.03;10300326;28;20048;-58
2021/06/25 13:07:23;;;;;;;28.17;10.45;;;;;;;0.01;0.00;59042.03;10317687;28;20076;-58
2021/06/25 13:12:24;;;;;;;25.40;9.20;;;;;;;0.01;0.00;59042.03;10317873;28;20064;-58
2021/06/25 13:17:24;;;;;;;12.27;7.28;;;;;;;0.01;0.00;59042.03;10317447;28;20395;-58
2021/06/25 13:22:39;;;;;;;19.00;7.97;;;;;;;0.01;0.00;59042.03;10317003;28;20088;-58
2021/06/25 13:27:38;;;;;;;19.38;7.88;;;;;;;0.01;0.00;59042.03;10313677;28;20075;-58
2021/06/25 13:32:37;;;;;;;12.07;6.85;;;;;;;0.01;0.00;59042.03;10309835;28;20445;-58
2021/06/25 13:37:40;;;;;;;19.02;7.45;;;;;;;0.01;0.00;59042.03;10298141;28;20053;-58
2021/06/25 13:42:40;;;;;;;25.38;7.68;;;;;;;0.01;0.00;59042.03;10313825;28;20084;-59
2021/06/25 13:47:39;;;;;;;9.77;6.30;;;;;;;0.01;0.00;59042.03;10313614;28;20079;-58
2021/06/25 13:52:39;;;;;;;16.13;6.47;;;;;;;0.01;0.00;59042.03;10307922;28;20508;-57
2021/06/25 13:58:00;;;;;;;19.00;9.98;;;;;;;0.01;0.00;59042.03;10314260;28;20087;-58
2021/06/25 14:03:00;;;;;;;19.85;7.47;;;;;;;0.01;0.00;59042.03;10312595;28;20091;-58
2021/06/25 14:08:02;;;;;;;18.05;6.35;;;;;;;0.01;0.00;59042.03;10277536;28;20455;-58
2021/06/25 14:13:02;;;;;;;15.70;5.73;;;;;;;0.01;0.00;59042.03;10271683;28;20080;-58
2021/06/25 14:18:01;;;;;;;10.85;5.82;;;;;;;0.01;0.00;59042.03;10270320;28;20521;-58
2021/06/25 14:23:01;;;;;;;15.75;5.78;;;;;;;0.01;0.00;59042.03;10271206;28;20517;-57
2021/06/25 14:28:00;;;;;;;17.98;7.85;;;;;;;0.01;0.00;59042.03;10274060;28;20048;-58
2021/06/25 14:32:59;;;;;;;15.00;7.88;;;;;;;0.01;0.00;59042.03;10274419;28;20053;-58
2021/06/25 14:37:57;;;;;;;15.05;6.20;;;;;;;0.01;0.00;59042.03;10262863;28;20045;-57
2021/06/25 14:42:58;;;;;;;20.45;6.65;;;;;;;0.01;0.00;59042.03;10281936;28;20084;-55
2021/06/25 14:47:59;;;;;;;18.13;6.75;;;;;;;0.01;0.00;59042.03;10281896;28;20506;-56
2021/06/25 14:52:58;;;;;;;14.25;6.28;;;;;;;0.01;0.00;59042.03;10282615;28;20087;-58
2021/06/25 14:57:58;;;;;;;18.35;9.35;;;;;;;0.01;0.00;59042.03;10282312;28;20037;-59
2021/06/25 15:02:56;;;;;;;23.50;6.63;;;;;;;0.01;0.00;59042.03;10281958;28;20087;-59
2021/06/25 15:07:55;;;;;;;9.70;6.18;;;;;;;0.01;0.00;59042.03;10282024;28;20517;-59
2021/06/25 15:12:54;;;;;;;12.50;7.18;;;;;;;0.01;0.00;59042.03;10281050;28;20041;-59
2021/06/25 15:17:55;;;;;;;14.75;6.22;;;;;;;0.01;0.00;59042.03;10281203;28;20057;-58
2021/06/25 15:22:53;;;;;;;18.58;8.73;;;;;;;0.01;0.00;59042.03;10280297;28;20088;-57
2021/06/25 15:27:52;;;;;;;17.20;9.93;;;;;;;0.01;0.00;59042.03;10281358;28;20037;-58
2021/06/25 15:32:52;;;;;;;29.25;17.15;;;;;;;0.01;0.00;59042.03;10281276;28;20045;-57
2021/06/25 15:37:52;;;;;;;16.80;11.15;;;;;;;0.01;0.00;59042.03;10280135;28;20053;-57
2021/06/25 15:42:51;;;;;;;19.48;11.02;;;;;;;0.01;0.00;59042.03;10280810;28;20089;-58
2021/06/25 15:47:51;;;;;;;16.30;6.93;;;;;;;0.01;0.00;59042.03;10280022;28;20525;-57
2021/06/25 15:52:50;;;;;;;17.52;13.52;;;;;;;0.01;0.00;59042.03;10279558;28;20045;-57
2021/06/25 15:57:50;;;;;;;15.85;7.75;;;;;;;0.01;0.00;59042.03;10279994;28;20067;-57
2021/06/25 16:02:49;;;;;;;17.35;6.55;;;;;;;0.01;0.00;59042.03;10278969;28;20080;-57
2021/06/25 16:07:49;;;;;;;12.98;7.85;;;;;;;0.01;0.00;59042.03;10279632;28;20068;-57
2021/06/25 16:12:48;;;;;;;12.70;6.93;;;;;;;0.01;0.00;59042.03;10279015;28;20079;-57
2021/06/25 16:17:48;;;;;;;14.73;8.25;;;;;;;0.01;0.00;59042.03;10279111;28;20422;-57
2021/06/25 16:22:47;;;;;;;16.50;7.07;;;;;;;0.01;0.00;59042.03;10278506;28;20076;-57
2021/06/25 16:27:46;;;;;;;11.90;9.18;;;;;;;0.01;0.00;59042.03;10260919;28;20064;-57
2021/06/25 16:32:44;;;;;;;24.70;9.93;;;;;;;0.01;0.00;59042.03;10260906;28;20068;-56
2021/06/25 16:37:45;;;;;;;15.40;7.93;;;;;;;0.01;0.00;59042.03;10278238;28;20044;-57
2021/06/25 16:42:44;;;;;;;22.88;8.63;;;;;;;0.01;0.00;59042.03;10277143;28;20087;-58
2021/06/25 16:47:43;;;;;;;15.60;6.75;;;;;;;0.01;0.00;59042.03;10276953;28;20053;-59
2021/06/25 16:52:42;;;;;;;15.48;6.72;;;;;;;0.01;0.00;59042.03;10277625;28;20045;-59
2021/06/25 16:57:42;;;;;;;20.65;14.02;;;;;;;0.01;0.00;59042.03;10276039;28;20517;-59
2021/06/25 17:02:41;;;;;;;17.17;7.75;;;;;;;0.01;0.00;59042.03;10277197;28;20080;-60
2021/06/25 17:07:41;;;;;;;21.90;7.88;;;;;;;0.01;0.00;59042.03;10276888;28;20045;-59
2021/06/25 17:12:44;;;;;;;32.08;18.88;;;;;;;0.01;0.00;59042.03;10276725;28;20045;-59
2021/06/25 17:17:43;;;;;;;22.10;14.07;;;;;;;0.01;0.00;59042.03;10276236;28;20045;-59
2021/06/25 17:22:42;;;;;;;22.25;9.45;;;;;;;0.01;0.00;59042.03;10276645;28;20490;-59
2021/06/25 17:27:40;;;;;;;16.80;7.88;;;;;;;0.01;0.00;59042.03;10276165;28;20068;-59
2021/06/25 17:32:40;;;;;;;12.77;8.60;;;;;;;0.01;0.00;59042.03;10276894;28;20076;-59
2021/06/25 17:37:39;;;;;;;17.90;8.55;;;;;;;0.01;0.00;59042.03;10276208;28;20087;-60
2021/06/25 17:42:38;;;;;;;19.48;9.43;;;;;;;0.01;0.00;59042.03;10275634;28;20084;-59
2021/06/25 17:47:38;;;;;;;17.90;8.00;;;;;;;0.01;0.00;59042.03;10275933;28;20055;-59
2021/06/25 17:52:39;;;;;;;16.90;9.00;;;;;;;0.01;0.00;59042.03;10275748;28;20091;-59
2021/06/25 17:57:37;;;;;;;20.38;8.18;;;;;;;0.01;0.00;59042.03;10275551;28;20045;-59
2021/06/25 18:02:37;;;;;;;13.63;7.10;;;;;;;0.01;0.00;59042.03;10274555;28;20088;-59
2021/06/25 18:07:35;;;;;;;13.43;7.28;;;;;;;0.01;0.00;59042.03;10274703;28;20057;-59
2021/06/25 18:12:36;;;;;;;20.50;7.03;;;;;;;0.01;0.00;59042.03;10276435;28;20513;-59
2021/06/25 18:17:35;;;;;;;12.65;7.15;;;;;;;0.01;0.00;59042.03;10274859;28;20521;-59
2021/06/25 18:22:34;;;;;;;13.75;6.60;;;;;;;0.01;0.00;59042.03;10256831;28;20080;-59
2021/06/25 18:27:34;;;;;;;20.50;6.93;;;;;;;0.01;0.00;59042.03;10274813;28;20507;-58
2021/06/25 18:32:34;;;;;;;16.05;6.43;;;;;;;0.01;0.00;59042.03;10274248;28;20055;-59
2021/06/25 18:37:34;;;;;;;13.57;6.55;;;;;;;0.01;0.00;59042.03;10274025;28;20057;-59
2021/06/25 18:42:35;;;;;;;15.07;6.50;;;;;;;0.01;0.00;59042.03;10275475;28;20526;-58
2021/06/25 18:47:34;;;;;;;13.55;6.22;;;;;;;0.01;0.00;59042.03;10273950;28;20041;-59
2021/06/25 18:52:33;;;;;;;14.27;6.32;;;;;;;0.01;0.00;59042.03;10274583;28;20041;-58
2021/06/25 18:57:31;;;;;;;14.50;6.63;;;;;;;0.01;0.00;59042.03;10274499;28;20084;-58
2021/06/25 19:02:32;;;;;;;19.52;6.25;;;;;;;0.01;0.00;59042.03;10274636;28;20077;-58
2021/06/25 19:07:31;;;;;;;10.75;5.35;;;;;;;0.01;0.00;59042.03;10275310;28;20072;-58
2021/06/25 19:12:30;;;;;;;17.92;6.20;;;;;;;0.01;0.00;59042.03;10281746;28;20056;-58
2021/06/25 19:17:29;;;;;;;20.15;7.07;;;;;;;0.01;0.00;59042.03;10307584;28;20477;-58
2021/06/25 19:22:29;;;;;;;12.43;6.82;;;;;;;0.01;0.00;59042.03;10310860;28;20486;-58
2021/06/25 19:27:28;;;;;;;12.75;6.13;;;;;;;0.01;0.00;59042.03;10302614;28;20642;-58
2021/06/25 19:32:30;;;;;;;11.43;7.13;;;;;;;0.01;0.00;59042.03;10317359;28;20076;-59
2021/06/25 19:37:30;;;;;;;9.98;6.80;;;;;;;0.01;0.00;59042.03;10317040;28;20566;-59
2021/06/25 19:42:29;;;;;;;16.70;6.13;;;;;;;0.01;0.00;59042.03;10312438;28;20556;-59
2021/06/25 19:47:28;;;;;;;16.02;6.28;;;;;;;0.01;0.00;59042.03;10314414;28;20536;-59
2021/06/25 19:52:26;;;;;;;16.25;5.78;;;;;;;0.01;0.00;59042.03;10318170;28;20086;-59
2021/06/25 19:57:27;;;;;;;15.98;6.40;;;;;;;0.01;0.00;59042.03;10316817;28;20438;-59
2021/06/25 20:02:26;;;;;;;18.42;7.43;;;;;;;0.01;0.00;59042.03;10292338;28;20068;-60
2021/06/25 20:07:24;;;;;;;14.90;6.80;;;;;;;0.01;0.00;59042.03;10320345;28;20072;-61
2021/06/25 20:12:40;;;;;;;11.35;6.38;;;;;;;0.01;0.00;59042.03;10317103;28;20170;-60
2021/06/25 20:17:39;;;;;;;15.48;8.07;;;;;;;0.01;0.00;59042.03;10306240;28;20517;-61
2021/06/25 20:22:38;;;;;;;16.30;6.50;;;;;;;0.01;0.00;59042.03;10275819;28;20327;-61
2021/06/25 20:27:37;;;;;;;11.55;5.65;;;;;;;0.01;0.00;59042.03;10302165;28;20084;-60
2021/06/25 20:32:37;;;;;;;18.70;5.53;;;;;;;0.01;0.00;59042.03;10315698;28;20076;-60
2021/06/25 20:37:36;;;;;;;19.83;7.18;;;;;;;0.01;0.00;59042.03;10308177;28;20269;-60
2021/06/25 20:42:35;;;;;;;23.33;7.55;;;;;;;0.01;0.00;59042.03;10303419;28;20073;-61
2021/06/25 20:47:34;;;;;;;12.63;7.13;;;;;;;0.01;0.00;59042.03;10257459;28;20048;-62
2021/06/25 20:52:34;;;;;;;18.40;6.88;;;;;;;0.01;0.00;59042.03;10275082;28;20083;-60
2021/06/25 20:57:33;;;;;;;11.48;6.85;;;;;;;0.01;0.00;59042.03;10277372;28;20045;-61
2021/06/25 21:02:32;;;;;;;15.45;6.93;;;;;;;0.01;0.00;59042.03;10278013;28;20088;-59
2021/06/25 21:07:31;;;;;;;22.40;7.13;;;;;;;0.01;0.00;59042.03;10277427;28;20045;-61
2021/06/25 21:12:31;;;;;;;13.20;6.72;;;;;;;0.01;0.00;59042.03;10277747;28;20067;-60
2021/06/25 21:17:30;;;;;;;19.88;7.47;;;;;;;0.01;0.00;59042.03;10277495;28;20045;-61
2021/06/25 21:22:28;;;;;;;23.80;7.40;;;;;;;0.01;0.00;59042.03;10276846;28;20115;-60
2021/06/25 21:27:27;;;;;;;19.70;7.38;;;;;;;0.01;0.00;59042.03;10277703;28;20048;-60
2021/06/25 21:32:27;;;;;;;18.40;7.72;;;;;;;0.01;0.00;59042.03;10276814;28;20068;-60
2021/06/25 21:37:26;;;;;;;12.93;7.50;;;;;;;0.01;0.00;59042.03;10276640;28;20513;-60
2021/06/25 21:42:25;;;;;;;18.52;6.82;;;;;;;0.01;0.00;59042.03;10276899;28;20048;-60
2021/06/25 21:47:24;;;;;;;17.40;7.30;;;;;;;0.01;0.00;59042.03;10277020;28;20064;-60
2021/06/25 21:52:24;;;;;;;17.10;7.85;;;;;;;0.01;0.00;59042.03;10257757;28;20490;-60
2021/06/25 21:57:23;;;;;;;18.08;7.85;;;;;;;0.01;0.00;59042.03;10276141;28;20052;-60
2021/06/25 22:02:24;;;;;;;16.23;7.20;;;;;;;0.01;0.00;59042.03;10276741;28;20072;-61
2021/06/25 22:07:26;;;;;;;12.32;7.78;;;;;;;0.01;0.00;59042.03;10275930;28;20483;-60
2021/06/25 22:12:25;;;;;;;20.35;7.43;;;;;;;0.01;0.00;59042.03;10276184;28;20450;-60
2021/06/25 22:17:24;;;;;;;20.58;8.05;;;;;;;0.01;0.00;59042.03;10276457;28;20045;-60
2021/06/25 22:22:24;;;;;;;9.77;7.03;;;;;;;0.01;0.00;59042.03;10275139;28;20502;-60
2021/06/25 22:27:24;;;;;;;13.68;7.60;;;;;;;0.01;0.00;59042.03;10275397;28;20053;-60
2021/06/25 22:32:25;;;;;;;16.67;8.15;;;;;;;0.01;0.00;59042.03;10275457;28;20045;-60
2021/06/25 22:37:25;;;;;;;16.25;8.35;;;;;;;0.01;0.00;59042.03;10272493;28;20076;-60
2021/06/25 22:42:24;;;;;;;14.75;6.95;;;;;;;0.01;0.00;59042.03;10277468;28;20055;-61
2021/06/25 22:47:22;;;;;;;14.30;8.02;;;;;;;0.01;0.00;59042.03;10315547;28;20084;-59
2021/06/25 22:52:21;;;;;;;15.98;8.20;;;;;;;0.01;0.00;59042.03;10314612;28;20045;-60
2021/06/25 22:57:21;;;;;;;16.40;7.95;;;;;;;0.01;0.00;59042.03;10313942;28;20076;-60
2021/06/25 23:02:20;;;;;;;13.98;8.13;;;;;;;0.01;0.00;59042.03;10320826;28;20048;-60
2021/06/25 23:07:19;;;;;;;52.63;10.55;;;;;;;0.01;0.00;59042.03;10323595;28;20501;-60
2021/06/25 23:12:17;;;;;;;37.05;9.50;;;;;;;0.01;0.00;59042.03;10322718;28;20048;-60
2021/06/25 23:17:18;;;;;;;21.40;5.35;;;;;;;0.01;0.00;59042.03;10321777;28;20060;-60
2021/06/25 23:22:16;;;;;;;15.48;5.40;;;;;;;0.01;0.00;59042.03;10323393;28;20048;-61
2021/06/25 23:27:15;;;;;;;31.83;5.60;;;;;;;0.01;0.00;59042.03;10322261;28;20088;-60
2021/06/25 23:32:14;;;;;;;27.40;6.32;;;;;;;0.01;0.00;59042.03;10321819;28;20524;-61
2021/06/25 23:37:14;;;;;;;22.35;6.00;;;;;;;0.01;0.00;59042.03;10322786;28;20040;-60
2021/06/25 23:42:13;;;;;;;22.63;5.40;;;;;;;0.01;0.00;59042.03;10322444;28;20036;-60